sensor_id;sensor_type;location;lat;lon;timestamp;pressure;altitude;pressure_sealevel;temperature;humidity
6506;BME280;3286;49.858;8.768;2023-04-25T00:01:15;98552.09;;;10.84;59.35
6506;BME280;3286;49.858;8.768;2023-04-25T00:03:41;98555.75;;;10.67;59.93
6506;BME280;3286;49.858;8.768;2023-04-25T00:06:08;98552.56;;;10.80;60.16
6506;BME280;3286;49.858;8.768;2023-04-25T00:08:36;98547.44;;;11.03;59.36
6506;BME280;3286;49.858;8.768;2023-04-25T00:11:03;98546.94;;;10.99;58.86
6506;BME280;3286;49.858;8.768;2023-04-25T00:13:30;98546.81;;;10.76;58.95
6506;BME280;3286;49.858;8.768;2023-04-25T00:15:56;98547.97;;;10.32;61.33
6506;BME280;3286;49.858;8.768;2023-04-25T00:18:24;98541.03;;;10.72;60.13
6506;BME280;3286;49.858;8.768;2023-04-25T00:20:50;98546.97;;;10.75;59.14
6506;BME280;3286;49.858;8.768;2023-04-25T00:23:17;98548.44;;;10.85;58.79
6506;BME280;3286;49.858;8.768;2023-04-25T00:25:46;98543.97;;;11.02;58.62
6506;BME280;3286;49.858;8.768;2023-04-25T00:28:13;98546.66;;;10.86;59.06
6506;BME280;3286;49.858;8.768;2023-04-25T00:30:40;98544.03;;;10.53;60.11
6506;BME280;3286;49.858;8.768;2023-04-25T00:33:07;98547.97;;;10.90;58.54
6506;BME280;3286;49.858;8.768;2023-04-25T00:35:34;98548.09;;;11.05;58.40
6506;BME280;3286;49.858;8.768;2023-04-25T00:38:01;98552.75;;;10.37;59.92
6506;BME280;3286;49.858;8.768;2023-04-25T00:40:28;98554.09;;;10.33;59.96
6506;BME280;3286;49.858;8.768;2023-04-25T00:42:56;98549.66;;;10.50;60.71
6506;BME280;3286;49.858;8.768;2023-04-25T00:45:27;98547.47;;;10.78;59.73
6506;BME280;3286;49.858;8.768;2023-04-25T00:47:54;98549.44;;;10.18;60.86
6506;BME280;3286;49.858;8.768;2023-04-25T00:50:22;98540.84;;;9.99;61.55
6506;BME280;3286;49.858;8.768;2023-04-25T00:52:49;98542.19;;;10.37;60.14
6506;BME280;3286;49.858;8.768;2023-04-25T00:55:16;98556.47;;;9.33;63.74
6506;BME280;3286;49.858;8.768;2023-04-25T00:57:42;98548.19;;;8.40;66.36
6506;BME280;3286;49.858;8.768;2023-04-25T01:00:11;98543.31;;;9.33;64.13
6506;BME280;3286;49.858;8.768;2023-04-25T01:02:39;98534.78;;;10.15;61.86
6506;BME280;3286;49.858;8.768;2023-04-25T01:05:07;98538.25;;;10.57;60.34
6506;BME280;3286;49.858;8.768;2023-04-25T01:07:34;98532.44;;;10.37;60.97
6506;BME280;3286;49.858;8.768;2023-04-25T01:10:00;98541.53;;;10.60;59.93
6506;BME280;3286;49.858;8.768;2023-04-25T01:12:27;98529.84;;;10.62;60.01
6506;BME280;3286;49.858;8.768;2023-04-25T01:14:54;98541.69;;;10.75;59.19
6506;BME280;3286;49.858;8.768;2023-04-25T01:17:22;98532.63;;;10.77;59.57
6506;BME280;3286;49.858;8.768;2023-04-25T01:19:49;98532.31;;;10.72;59.38
6506;BME280;3286;49.858;8.768;2023-04-25T01:22:18;98534.97;;;10.64;59.70
6506;BME280;3286;49.858;8.768;2023-04-25T01:24:45;98531.78;;;10.35;60.40
6506;BME280;3286;49.858;8.768;2023-04-25T01:27:12;98528.50;;;10.17;61.18
6506;BME280;3286;49.858;8.768;2023-04-25T01:29:39;98536.09;;;10.20;61.21
6506;BME280;3286;49.858;8.768;2023-04-25T01:32:06;98533.06;;;9.73;62.44
6506;BME280;3286;49.858;8.768;2023-04-25T01:34:34;98537.69;;;9.71;62.81
6506;BME280;3286;49.858;8.768;2023-04-25T01:37:00;98533.94;;;10.07;61.49
6506;BME280;3286;49.858;8.768;2023-04-25T01:39:29;98542.84;;;9.03;65.25
6506;BME280;3286;49.858;8.768;2023-04-25T01:41:55;98541.50;;;10.02;62.41
6506;BME280;3286;49.858;8.768;2023-04-25T01:44:23;98547.59;;;9.94;62.55
6506;BME280;3286;49.858;8.768;2023-04-25T01:46:49;98543.69;;;10.06;61.82
6506;BME280;3286;49.858;8.768;2023-04-25T01:49:16;98541.66;;;9.92;62.10
6506;BME280;3286;49.858;8.768;2023-04-25T01:51:43;98537.03;;;9.94;62.35
6506;BME280;3286;49.858;8.768;2023-04-25T01:54:10;98527.91;;;9.63;63.70
6506;BME280;3286;49.858;8.768;2023-04-25T01:56:39;98537.06;;;8.99;66.22
6506;BME280;3286;49.858;8.768;2023-04-25T01:59:06;98543.75;;;9.63;64.28
6506;BME280;3286;49.858;8.768;2023-04-25T02:01:32;98542.50;;;9.84;62.93
6506;BME280;3286;49.858;8.768;2023-04-25T02:04:00;98537.88;;;10.19;62.11
6506;BME280;3286;49.858;8.768;2023-04-25T02:06:26;98541.03;;;10.31;61.23
6506;BME280;3286;49.858;8.768;2023-04-25T02:08:53;98539.09;;;10.41;60.50
6506;BME280;3286;49.858;8.768;2023-04-25T02:11:20;98546.69;;;9.52;62.96
6506;BME280;3286;49.858;8.768;2023-04-25T02:13:47;98541.72;;;9.14;65.14
6506;BME280;3286;49.858;8.768;2023-04-25T02:16:14;98539.00;;;9.75;62.33
6506;BME280;3286;49.858;8.768;2023-04-25T02:18:41;98538.56;;;10.05;62.14
6506;BME280;3286;49.858;8.768;2023-04-25T02:21:07;98534.94;;;10.55;60.37
6506;BME280;3286;49.858;8.768;2023-04-25T02:23:34;98533.47;;;10.53;60.23
6506;BME280;3286;49.858;8.768;2023-04-25T02:26:01;98531.97;;;10.67;59.98
6506;BME280;3286;49.858;8.768;2023-04-25T02:28:27;98523.91;;;10.43;60.86
6506;BME280;3286;49.858;8.768;2023-04-25T02:30:55;98532.47;;;10.62;60.68
6506;BME280;3286;49.858;8.768;2023-04-25T02:33:22;98523.06;;;10.51;60.12
6506;BME280;3286;49.858;8.768;2023-04-25T02:35:48;98522.75;;;10.54;60.85
6506;BME280;3286;49.858;8.768;2023-04-25T02:38:15;98521.25;;;10.60;59.84
6506;BME280;3286;49.858;8.768;2023-04-25T02:40:42;98525.88;;;10.58;59.94
6506;BME280;3286;49.858;8.768;2023-04-25T02:43:08;98523.09;;;10.43;60.81
6506;BME280;3286;49.858;8.768;2023-04-25T02:45:35;98532.16;;;10.49;61.01
6506;BME280;3286;49.858;8.768;2023-04-25T02:48:04;98516.78;;;10.36;60.57
6506;BME280;3286;49.858;8.768;2023-04-25T02:50:31;98516.78;;;10.36;60.52
6506;BME280;3286;49.858;8.768;2023-04-25T02:52:58;98517.59;;;10.86;59.80
6506;BME280;3286;49.858;8.768;2023-04-25T02:55:24;98518.97;;;10.40;60.87
6506;BME280;3286;49.858;8.768;2023-04-25T02:57:51;98511.84;;;10.57;60.58
6506;BME280;3286;49.858;8.768;2023-04-25T03:00:17;98514.28;;;10.76;59.07
6506;BME280;3286;49.858;8.768;2023-04-25T03:02:44;98516.97;;;10.51;60.13
6506;BME280;3286;49.858;8.768;2023-04-25T03:05:12;98510.00;;;10.83;58.75
6506;BME280;3286;49.858;8.768;2023-04-25T03:07:39;98517.59;;;10.69;59.55
6506;BME280;3286;49.858;8.768;2023-04-25T03:10:06;98517.47;;;10.46;60.53
6506;BME280;3286;49.858;8.768;2023-04-25T03:12:33;98520.75;;;10.65;58.86
6506;BME280;3286;49.858;8.768;2023-04-25T03:14:59;98512.97;;;10.38;60.64
6506;BME280;3286;49.858;8.768;2023-04-25T03:17:26;98515.28;;;10.83;58.96
6506;BME280;3286;49.858;8.768;2023-04-25T03:19:53;98511.97;;;10.39;60.38
6506;BME280;3286;49.858;8.768;2023-04-25T03:22:21;98516.47;;;10.31;60.26
6506;BME280;3286;49.858;8.768;2023-04-25T03:24:48;98517.47;;;10.29;60.92
6506;BME280;3286;49.858;8.768;2023-04-25T03:27:15;98511.16;;;9.81;62.36
6506;BME280;3286;49.858;8.768;2023-04-25T03:29:41;98525.09;;;9.56;62.41
6506;BME280;3286;49.858;8.768;2023-04-25T03:32:08;98518.44;;;9.95;60.97
6506;BME280;3286;49.858;8.768;2023-04-25T03:34:35;98521.88;;;9.88;61.34
6506;BME280;3286;49.858;8.768;2023-04-25T03:37:01;98523.75;;;10.45;60.55
6506;BME280;3286;49.858;8.768;2023-04-25T03:39:29;98530.66;;;10.54;60.15
6506;BME280;3286;49.858;8.768;2023-04-25T03:41:56;98530.31;;;10.33;60.74
6506;BME280;3286;49.858;8.768;2023-04-25T03:44:22;98527.03;;;10.55;60.55
6506;BME280;3286;49.858;8.768;2023-04-25T03:46:49;98528.66;;;10.15;61.52
6506;BME280;3286;49.858;8.768;2023-04-25T03:49:16;98528.16;;;10.20;61.78
6506;BME280;3286;49.858;8.768;2023-04-25T03:51:43;98530.47;;;10.31;61.23
6506;BME280;3286;49.858;8.768;2023-04-25T03:54:09;98535.75;;;10.39;60.21
6506;BME280;3286;49.858;8.768;2023-04-25T03:56:37;98539.25;;;10.40;60.41
6506;BME280;3286;49.858;8.768;2023-04-25T03:59:04;98538.41;;;10.31;60.90
6506;BME280;3286;49.858;8.768;2023-04-25T04:01:30;98542.06;;;10.47;59.90
6506;BME280;3286;49.858;8.768;2023-04-25T04:03:57;98546.16;;;10.33;60.59
6506;BME280;3286;49.858;8.768;2023-04-25T04:06:24;98549.94;;;10.38;60.89
6506;BME280;3286;49.858;8.768;2023-04-25T04:08:51;98545.00;;;10.35;60.33
6506;BME280;3286;49.858;8.768;2023-04-25T04:11:17;98544.19;;;10.68;60.12
6506;BME280;3286;49.858;8.768;2023-04-25T04:13:45;98543.22;;;10.44;60.51
6506;BME280;3286;49.858;8.768;2023-04-25T04:16:12;98551.63;;;10.64;59.75
6506;BME280;3286;49.858;8.768;2023-04-25T04:18:38;98555.94;;;10.49;60.23
6506;BME280;3286;49.858;8.768;2023-04-25T04:21:05;98555.38;;;10.12;61.43
6506;BME280;3286;49.858;8.768;2023-04-25T04:23:31;98554.09;;;10.33;60.17
6506;BME280;3286;49.858;8.768;2023-04-25T04:25:58;98558.19;;;10.35;60.65
6506;BME280;3286;49.858;8.768;2023-04-25T04:28:26;98558.19;;;10.35;60.77
6506;BME280;3286;49.858;8.768;2023-04-25T04:30:54;98562.53;;;10.53;59.45
6506;BME280;3286;49.858;8.768;2023-04-25T04:33:21;98565.19;;;10.45;60.37
6506;BME280;3286;49.858;8.768;2023-04-25T04:35:49;98572.31;;;9.93;61.58
6506;BME280;3286;49.858;8.768;2023-04-25T04:38:17;98568.47;;;9.70;61.54
6506;BME280;3286;49.858;8.768;2023-04-25T04:40:45;98570.19;;;9.80;60.67
6506;BME280;3286;49.858;8.768;2023-04-25T04:43:11;98566.78;;;10.21;59.88
6506;BME280;3286;49.858;8.768;2023-04-25T04:45:38;98572.53;;;10.16;60.43
6506;BME280;3286;49.858;8.768;2023-04-25T04:48:06;98577.41;;;10.46;60.00
6506;BME280;3286;49.858;8.768;2023-04-25T04:50:33;98567.78;;;9.60;61.49
6506;BME280;3286;49.858;8.768;2023-04-25T04:53:01;98575.34;;;10.31;59.44
6506;BME280;3286;49.858;8.768;2023-04-25T04:55:28;98581.75;;;10.04;60.40
6506;BME280;3286;49.858;8.768;2023-04-25T04:57:55;98579.03;;;10.47;58.42
6506;BME280;3286;49.858;8.768;2023-04-25T05:00:21;98592.84;;;10.15;60.29
6506;BME280;3286;49.858;8.768;2023-04-25T05:02:48;98589.75;;;10.45;59.51
6506;BME280;3286;49.858;8.768;2023-04-25T05:05:16;98597.13;;;10.33;59.91
6506;BME280;3286;49.858;8.768;2023-04-25T05:07:42;98603.44;;;10.73;58.88
6506;BME280;3286;49.858;8.768;2023-04-25T05:10:10;98606.84;;;10.16;60.41
6506;BME280;3286;49.858;8.768;2023-04-25T05:12:37;98601.81;;;10.56;59.41
6506;BME280;3286;49.858;8.768;2023-04-25T05:15:05;98607.91;;;10.81;57.81
6506;BME280;3286;49.858;8.768;2023-04-25T05:17:31;98603.22;;;8.96;59.94
6506;BME280;3286;49.858;8.768;2023-04-25T05:19:58;98605.97;;;9.91;58.78
6506;BME280;3286;49.858;8.768;2023-04-25T05:22:26;98607.66;;;10.00;59.14
6506;BME280;3286;49.858;8.768;2023-04-25T05:24:53;98609.69;;;10.39;57.52
6506;BME280;3286;49.858;8.768;2023-04-25T05:27:20;98610.28;;;8.96;60.47
6506;BME280;3286;49.858;8.768;2023-04-25T05:29:46;98617.56;;;8.76;61.50
6506;BME280;3286;49.858;8.768;2023-04-25T05:32:13;98614.69;;;9.83;58.60
6506;BME280;3286;49.858;8.768;2023-04-25T05:34:39;98614.84;;;9.81;58.07
6506;BME280;3286;49.858;8.768;2023-04-25T05:37:07;98617.72;;;8.74;60.59
6506;BME280;3286;49.858;8.768;2023-04-25T05:39:35;98624.31;;;9.23;59.59
6506;BME280;3286;49.858;8.768;2023-04-25T05:42:01;98624.44;;;9.48;59.06
6506;BME280;3286;49.858;8.768;2023-04-25T05:44:29;98633.41;;;9.63;58.85
6506;BME280;3286;49.858;8.768;2023-04-25T05:46:55;98634.50;;;9.18;57.59
6506;BME280;3286;49.858;8.768;2023-04-25T05:49:22;98646.25;;;7.96;61.87
6506;BME280;3286;49.858;8.768;2023-04-25T05:51:48;98638.09;;;9.17;60.25
6506;BME280;3286;49.858;8.768;2023-04-25T05:54:15;98634.63;;;9.42;57.33
6506;BME280;3286;49.858;8.768;2023-04-25T05:56:43;98643.44;;;10.03;56.08
6506;BME280;3286;49.858;8.768;2023-04-25T05:59:09;98649.41;;;10.13;56.40
6506;BME280;3286;49.858;8.768;2023-04-25T06:01:36;98653.38;;;10.17;56.11
6506;BME280;3286;49.858;8.768;2023-04-25T06:04:03;98655.19;;;10.17;56.04
6506;BME280;3286;49.858;8.768;2023-04-25T06:06:30;98659.06;;;10.47;56.11
6506;BME280;3286;49.858;8.768;2023-04-25T06:08:57;98656.06;;;10.25;55.09
6506;BME280;3286;49.858;8.768;2023-04-25T06:11:23;98658.69;;;10.25;55.85
6506;BME280;3286;49.858;8.768;2023-04-25T06:13:51;98661.16;;;9.15;58.20
6506;BME280;3286;49.858;8.768;2023-04-25T06:16:18;98654.75;;;9.86;56.98
6506;BME280;3286;49.858;8.768;2023-04-25T06:18:44;98661.56;;;9.89;56.20
6506;BME280;3286;49.858;8.768;2023-04-25T06:21:11;98661.00;;;10.20;54.93
6506;BME280;3286;49.858;8.768;2023-04-25T06:23:37;98659.59;;;10.51;54.99
6506;BME280;3286;49.858;8.768;2023-04-25T06:26:04;98649.78;;;10.35;54.61
6506;BME280;3286;49.858;8.768;2023-04-25T06:28:31;98657.41;;;10.46;54.37
6506;BME280;3286;49.858;8.768;2023-04-25T06:30:59;98661.59;;;9.63;56.03
6506;BME280;3286;49.858;8.768;2023-04-25T06:33:25;98659.28;;;10.87;54.37
6506;BME280;3286;49.858;8.768;2023-04-25T06:35:52;98662.31;;;10.24;54.65
6506;BME280;3286;49.858;8.768;2023-04-25T06:38:19;98654.66;;;10.05;54.89
6506;BME280;3286;49.858;8.768;2023-04-25T06:40:45;98646.81;;;10.21;54.61
6506;BME280;3286;49.858;8.768;2023-04-25T06:43:12;98646.03;;;10.70;53.43
6506;BME280;3286;49.858;8.768;2023-04-25T06:45:39;98646.50;;;11.24;52.62
6506;BME280;3286;49.858;8.768;2023-04-25T06:48:07;98644.75;;;11.64;50.20
6506;BME280;3286;49.858;8.768;2023-04-25T06:50:34;98646.38;;;11.09;52.29
6506;BME280;3286;49.858;8.768;2023-04-25T06:53:00;98645.38;;;11.01;51.67
6506;BME280;3286;49.858;8.768;2023-04-25T06:55:27;98646.19;;;11.19;52.45
6506;BME280;3286;49.858;8.768;2023-04-25T06:57:54;98649.75;;;11.51;50.79
6506;BME280;3286;49.858;8.768;2023-04-25T07:00:21;98663.97;;;11.50;52.15
6506;BME280;3286;49.858;8.768;2023-04-25T07:02:47;98662.31;;;11.49;51.83
6506;BME280;3286;49.858;8.768;2023-04-25T07:05:15;98661.16;;;11.51;52.38
6506;BME280;3286;49.858;8.768;2023-04-25T07:07:42;98656.47;;;11.62;51.11
6506;BME280;3286;49.858;8.768;2023-04-25T07:10:09;98651.09;;;11.86;50.93
6506;BME280;3286;49.858;8.768;2023-04-25T07:12:35;98655.59;;;11.78;50.30
6506;BME280;3286;49.858;8.768;2023-04-25T07:15:02;98659.72;;;11.80;50.52
6506;BME280;3286;49.858;8.768;2023-04-25T07:17:32;98660.31;;;11.99;50.77
6506;BME280;3286;49.858;8.768;2023-04-25T07:19:59;98662.75;;;12.40;49.73
6506;BME280;3286;49.858;8.768;2023-04-25T07:22:27;98660.81;;;12.81;49.27
6506;BME280;3286;49.858;8.768;2023-04-25T07:24:54;98663.88;;;12.93;48.30
6506;BME280;3286;49.858;8.768;2023-04-25T07:27:21;98667.53;;;12.45;48.67
6506;BME280;3286;49.858;8.768;2023-04-25T07:29:48;98676.94;;;12.24;49.58
6506;BME280;3286;49.858;8.768;2023-04-25T07:32:14;98674.78;;;11.88;49.89
6506;BME280;3286;49.858;8.768;2023-04-25T07:34:41;98673.81;;;11.72;51.07
6506;BME280;3286;49.858;8.768;2023-04-25T07:37:07;98676.50;;;12.12;49.86
6506;BME280;3286;49.858;8.768;2023-04-25T07:39:36;98679.06;;;12.52;49.10
6506;BME280;3286;49.858;8.768;2023-04-25T07:42:03;98676.03;;;12.87;48.13
6506;BME280;3286;49.858;8.768;2023-04-25T07:44:31;98681.81;;;11.96;49.27
6506;BME280;3286;49.858;8.768;2023-04-25T07:47:04;98683.81;;;11.94;47.95
6506;BME280;3286;49.858;8.768;2023-04-25T07:49:30;98685.16;;;11.33;48.61
6506;BME280;3286;49.858;8.768;2023-04-25T07:51:57;98679.66;;;11.51;48.35
6506;BME280;3286;49.858;8.768;2023-04-25T07:54:24;98684.63;;;11.46;48.75
6506;BME280;3286;49.858;8.768;2023-04-25T07:56:52;98685.13;;;11.41;48.12
6506;BME280;3286;49.858;8.768;2023-04-25T07:59:19;98698.94;;;12.25;47.19
6506;BME280;3286;49.858;8.768;2023-04-25T08:01:45;98701.28;;;11.63;47.82
6506;BME280;3286;49.858;8.768;2023-04-25T08:04:12;98699.53;;;11.95;47.45
6506;BME280;3286;49.858;8.768;2023-04-25T08:06:39;98695.47;;;12.56;46.93
6506;BME280;3286;49.858;8.768;2023-04-25T08:09:05;98704.66;;;12.68;47.33
6506;BME280;3286;49.858;8.768;2023-04-25T08:11:33;98701.59;;;13.18;45.39
6506;BME280;3286;49.858;8.768;2023-04-25T08:14:01;98700.91;;;13.39;44.64
6506;BME280;3286;49.858;8.768;2023-04-25T08:16:28;98702.47;;;13.33;43.85
6506;BME280;3286;49.858;8.768;2023-04-25T08:18:55;98707.75;;;13.18;45.13
6506;BME280;3286;49.858;8.768;2023-04-25T08:21:21;98707.41;;;12.98;45.18
6506;BME280;3286;49.858;8.768;2023-04-25T08:23:48;98715.63;;;12.34;46.85
6506;BME280;3286;49.858;8.768;2023-04-25T08:26:15;98725.25;;;11.62;47.63
6506;BME280;3286;49.858;8.768;2023-04-25T08:28:42;98727.56;;;12.29;45.75
6506;BME280;3286;49.858;8.768;2023-04-25T08:31:10;98732.19;;;11.79;46.27
6506;BME280;3286;49.858;8.768;2023-04-25T08:33:36;98738.88;;;10.84;47.22
6506;BME280;3286;49.858;8.768;2023-04-25T08:36:03;98737.41;;;11.06;45.98
6506;BME280;3286;49.858;8.768;2023-04-25T08:38:30;98734.22;;;11.52;46.49
6506;BME280;3286;49.858;8.768;2023-04-25T08:40:59;98739.97;;;12.84;45.23
6506;BME280;3286;49.858;8.768;2023-04-25T08:43:29;98743.03;;;12.09;46.81
6506;BME280;3286;49.858;8.768;2023-04-25T08:45:58;98741.28;;;12.33;46.51
6506;BME280;3286;49.858;8.768;2023-04-25T08:48:27;98738.84;;;13.25;42.23
6506;BME280;3286;49.858;8.768;2023-04-25T08:50:55;98743.47;;;12.84;42.18
6506;BME280;3286;49.858;8.768;2023-04-25T08:53:25;98741.09;;;12.89;42.64
6506;BME280;3286;49.858;8.768;2023-04-25T08:55:53;98748.59;;;11.41;46.04
6506;BME280;3286;49.858;8.768;2023-04-25T08:58:21;98745.81;;;12.56;42.40
6506;BME280;3286;49.858;8.768;2023-04-25T09:00:48;98746.00;;;14.23;40.38
6506;BME280;3286;49.858;8.768;2023-04-25T09:03:15;98737.03;;;14.45;39.47
6506;BME280;3286;49.858;8.768;2023-04-25T09:05:43;98750.84;;;12.97;41.15
6506;BME280;3286;49.858;8.768;2023-04-25T09:08:10;98754.41;;;12.26;43.83
6506;BME280;3286;49.858;8.768;2023-04-25T09:10:37;98752.94;;;13.64;43.28
6506;BME280;3286;49.858;8.768;2023-04-25T09:13:05;98756.81;;;13.38;42.67
6506;BME280;3286;49.858;8.768;2023-04-25T09:15:46;98764.75;;;12.44;42.18
6506;BME280;3286;49.858;8.768;2023-04-25T09:18:13;98770.50;;;13.50;42.52
6506;BME280;3286;49.858;8.768;2023-04-25T09:20:43;98765.44;;;12.70;42.18
6506;BME280;3286;49.858;8.768;2023-04-25T09:23:10;98765.09;;;13.19;40.96
6506;BME280;3286;49.858;8.768;2023-04-25T09:25:37;98759.38;;;13.84;39.42
6506;BME280;3286;49.858;8.768;2023-04-25T09:28:05;98761.09;;;13.62;41.22
6506;BME280;3286;49.858;8.768;2023-04-25T09:30:33;98763.75;;;13.39;39.63
6506;BME280;3286;49.858;8.768;2023-04-25T09:33:04;98768.72;;;11.76;42.84
6506;BME280;3286;49.858;8.768;2023-04-25T09:35:35;98776.69;;;11.84;44.69
6506;BME280;3286;49.858;8.768;2023-04-25T09:38:08;98763.75;;;13.39;42.25
6506;BME280;3286;49.858;8.768;2023-04-25T09:40:39;98782.50;;;13.37;42.97
6506;BME280;3286;49.858;8.768;2023-04-25T09:43:09;98784.25;;;13.07;40.57
6506;BME280;3286;49.858;8.768;2023-04-25T09:45:41;98774.56;;;14.05;39.80
6506;BME280;3286;49.858;8.768;2023-04-25T09:48:11;98789.81;;;12.88;40.29
6506;BME280;3286;49.858;8.768;2023-04-25T09:50:39;98794.91;;;13.22;41.05
6506;BME280;3286;49.858;8.768;2023-04-25T09:53:06;98796.56;;;13.46;42.21
6506;BME280;3286;49.858;8.768;2023-04-25T09:55:34;98789.38;;;13.31;39.90
6506;BME280;3286;49.858;8.768;2023-04-25T09:58:05;98785.94;;;13.46;40.28
6506;BME280;3286;49.858;8.768;2023-04-25T10:00:33;98798.38;;;12.99;39.72
6506;BME280;3286;49.858;8.768;2023-04-25T10:03:01;98800.03;;;13.23;41.79
6506;BME280;3286;49.858;8.768;2023-04-25T10:05:30;98817.56;;;11.65;41.65
6506;BME280;3286;49.858;8.768;2023-04-25T10:07:58;98811.59;;;11.38;42.99
6506;BME280;3286;49.858;8.768;2023-04-25T10:10:26;98819.13;;;11.99;44.11
6506;BME280;3286;49.858;8.768;2023-04-25T10:12:56;98822.72;;;13.02;42.28
6506;BME280;3286;49.858;8.768;2023-04-25T10:15:23;98826.44;;;12.53;42.40
6506;BME280;3286;49.858;8.768;2023-04-25T10:17:50;98829.41;;;11.94;42.98
6506;BME280;3286;49.858;8.768;2023-04-25T10:20:17;98834.69;;;11.02;43.47
6506;BME280;3286;49.858;8.768;2023-04-25T10:22:44;98833.72;;;11.12;41.07
6506;BME280;3286;49.858;8.768;2023-04-25T10:25:13;98829.94;;;11.72;42.15
6506;BME280;3286;49.858;8.768;2023-04-25T10:27:41;98832.56;;;11.31;42.40
6506;BME280;3286;49.858;8.768;2023-04-25T10:30:13;98828.41;;;12.11;42.69
6506;BME280;3286;49.858;8.768;2023-04-25T10:32:41;98831.44;;;11.58;41.87
6506;BME280;3286;49.858;8.768;2023-04-25T10:35:13;98834.22;;;11.15;41.22
6506;BME280;3286;49.858;8.768;2023-04-25T10:37:59;98839.53;;;11.24;41.71
6506;BME280;3286;49.858;8.768;2023-04-25T10:40:26;98835.06;;;11.33;42.88
6506;BME280;3286;49.858;8.768;2023-04-25T10:42:53;98841.19;;;11.58;42.66
6506;BME280;3286;49.858;8.768;2023-04-25T10:45:21;98839.00;;;11.86;42.94
6506;BME280;3286;49.858;8.768;2023-04-25T10:47:48;98847.41;;;12.23;42.61
6506;BME280;3286;49.858;8.768;2023-04-25T10:50:15;98849.59;;;12.68;41.58
6506;BME280;3286;49.858;8.768;2023-04-25T10:52:42;98847.25;;;12.25;41.56
6506;BME280;3286;49.858;8.768;2023-04-25T10:55:09;98848.78;;;12.02;40.84
6506;BME280;3286;49.858;8.768;2023-04-25T10:57:37;98849.06;;;12.32;41.19
6506;BME280;3286;49.858;8.768;2023-04-25T11:00:10;98848.22;;;12.32;41.21
6506;BME280;3286;49.858;8.768;2023-04-25T11:02:41;98853.84;;;12.29;40.75
6506;BME280;3286;49.858;8.768;2023-04-25T11:05:08;98848.31;;;11.66;40.75
6506;BME280;3286;49.858;8.768;2023-04-25T11:07:38;98852.25;;;11.86;41.09
6506;BME280;3286;49.858;8.768;2023-04-25T11:10:09;98838.41;;;13.59;39.80
6506;BME280;3286;49.858;8.768;2023-04-25T11:12:35;98851.53;;;13.75;40.41
6506;BME280;3286;49.858;8.768;2023-04-25T11:15:03;98854.63;;;12.86;40.82
6506;BME280;3286;49.858;8.768;2023-04-25T11:17:30;98860.03;;;11.71;41.96
6506;BME280;3286;49.858;8.768;2023-04-25T11:19:58;98851.09;;;11.97;40.62
6506;BME280;3286;49.858;8.768;2023-04-25T11:22:26;98859.09;;;12.85;40.67
6506;BME280;3286;49.858;8.768;2023-04-25T11:24:53;98850.75;;;12.65;40.95
6506;BME280;3286;49.858;8.768;2023-04-25T11:27:20;98841.66;;;13.46;39.93
6506;BME280;3286;49.858;8.768;2023-04-25T11:29:47;98849.13;;;13.19;41.55
6506;BME280;3286;49.858;8.768;2023-04-25T11:32:15;98857.09;;;13.42;39.74
6506;BME280;3286;49.858;8.768;2023-04-25T11:34:43;98835.13;;;14.10;39.21
6506;BME280;3286;49.858;8.768;2023-04-25T11:37:12;98849.19;;;14.86;39.88
6506;BME280;3286;49.858;8.768;2023-04-25T11:39:43;98836.06;;;15.21;36.94
6506;BME280;3286;49.858;8.768;2023-04-25T11:42:11;98847.88;;;14.97;37.62
6506;BME280;3286;49.858;8.768;2023-04-25T11:44:39;98855.06;;;14.66;37.20
6506;BME280;3286;49.858;8.768;2023-04-25T11:47:06;98857.44;;;14.01;39.34
6506;BME280;3286;49.858;8.768;2023-04-25T11:49:32;98882.97;;;13.49;39.75
6506;BME280;3286;49.858;8.768;2023-04-25T11:52:00;98869.66;;;12.94;39.56
6506;BME280;3286;49.858;8.768;2023-04-25T11:54:28;98866.78;;;13.03;39.12
6506;BME280;3286;49.858;8.768;2023-04-25T11:56:55;98873.66;;;12.89;40.43
6506;BME280;3286;49.858;8.768;2023-04-25T11:59:23;98884.19;;;11.43;41.53
6506;BME280;3286;49.858;8.768;2023-04-25T12:01:51;98876.44;;;12.56;41.34
6506;BME280;3286;49.858;8.768;2023-04-25T12:04:19;98882.84;;;12.70;40.92
6506;BME280;3286;49.858;8.768;2023-04-25T12:06:47;98886.50;;;12.13;41.60
6506;BME280;3286;49.858;8.768;2023-04-25T12:09:16;98890.00;;;12.61;42.06
6506;BME280;3286;49.858;8.768;2023-04-25T12:11:46;98887.16;;;11.65;42.74
6506;BME280;3286;49.858;8.768;2023-04-25T12:14:20;98889.97;;;11.80;41.19
6506;BME280;3286;49.858;8.768;2023-04-25T12:16:48;98885.41;;;12.47;41.06
6506;BME280;3286;49.858;8.768;2023-04-25T12:19:17;98886.94;;;13.13;39.45
6506;BME280;3286;49.858;8.768;2023-04-25T12:21:44;98887.50;;;13.08;42.02
6506;BME280;3286;49.858;8.768;2023-04-25T12:24:12;98889.47;;;13.38;38.42
6506;BME280;3286;49.858;8.768;2023-04-25T12:26:51;98888.41;;;12.44;39.17
6506;BME280;3286;49.858;8.768;2023-04-25T12:29:19;98894.25;;;10.80;42.30
6506;BME280;3286;49.858;8.768;2023-04-25T12:31:46;98899.38;;;11.83;43.50
6506;BME280;3286;49.858;8.768;2023-04-25T12:34:13;98893.75;;;12.36;41.68
6506;BME280;3286;49.858;8.768;2023-04-25T12:36:40;98900.19;;;12.00;41.40
6506;BME280;3286;49.858;8.768;2023-04-25T12:39:06;98899.06;;;11.69;40.87
6506;BME280;3286;49.858;8.768;2023-04-25T12:41:33;98899.88;;;11.37;44.28
6506;BME280;3286;49.858;8.768;2023-04-25T12:44:01;98896.66;;;12.49;40.95
6506;BME280;3286;49.858;8.768;2023-04-25T12:46:28;98903.72;;;12.73;41.12
6506;BME280;3286;49.858;8.768;2023-04-25T12:48:55;98901.84;;;12.82;40.86
6506;BME280;3286;49.858;8.768;2023-04-25T12:51:22;98909.63;;;12.84;41.59
6506;BME280;3286;49.858;8.768;2023-04-25T12:53:50;98907.91;;;12.99;39.46
6506;BME280;3286;49.858;8.768;2023-04-25T12:56:17;98911.72;;;13.83;40.06
6506;BME280;3286;49.858;8.768;2023-04-25T12:58:43;98903.25;;;12.61;41.39
6506;BME280;3286;49.858;8.768;2023-04-25T13:01:12;98910.53;;;12.59;39.96
6506;BME280;3286;49.858;8.768;2023-04-25T13:03:39;98913.66;;;13.11;40.80
6506;BME280;3286;49.858;8.768;2023-04-25T13:06:06;98910.63;;;12.83;40.05
6506;BME280;3286;49.858;8.768;2023-04-25T13:08:33;98916.88;;;12.98;40.08
6506;BME280;3286;49.858;8.768;2023-04-25T13:11:00;98920.69;;;12.48;39.46
6506;BME280;3286;49.858;8.768;2023-04-25T13:13:26;98920.78;;;13.42;39.00
6506;BME280;3286;49.858;8.768;2023-04-25T13:15:53;98909.81;;;14.30;37.55
6506;BME280;3286;49.858;8.768;2023-04-25T13:18:22;98912.28;;;12.84;39.17
6506;BME280;3286;49.858;8.768;2023-04-25T13:20:51;98909.09;;;13.28;37.78
6506;BME280;3286;49.858;8.768;2023-04-25T13:23:18;98906.72;;;13.02;38.31